• Join FlightAware (Why Join?)
  • Login
  • US Flag 
07:04PM EDT


 

Airport Tracker/Info


-or-


 

Live Flight TrackerFlight Track Log ✈ BJS624 ✈ 28-Mar-2012 ✈ KAGC - KBED

Flight Track Log - Related Links

Times and Time Zones

All times are in EDT time to prevent confusion due to time zone crossing. See the BJS624 flight status page for this flight to view local times or setup timezone preferences in your user account.

Time Position Orientation Groundspeed Altitude Reporting Facility
EDT Latitude Longitude Course Direction KTS MPH feet Rate Location/Type
01:54PM 40.4133 -79.9150 78° East 267 307 5,600  Level Cleveland Center
01:55PM 40.4314 -79.8058 75° East 249 287 9,100 3,120 Climbing Cleveland Center
01:56PM 40.4575 -79.6744 62° Northeast 293 337 11,900 3,420 Climbing Cleveland Center
01:57PM 40.5128 -79.5372 60° Northeast 370 426 16,000 4,080 Climbing Cleveland Center
01:58PM 40.5739 -79.3967 60° Northeast 412 474 20,100 3,480 Climbing Cleveland Center
01:59PM 40.6369 -79.2506 61° Northeast 442 509 23,000 2,700 Climbing Cleveland Center
02:00PM 40.7036 -79.0931 61° Northeast 470 541 25,600 2,880 Climbing Cleveland Center
02:01PM 40.7683 -78.9381 61° Northeast 477 549 28,800 3,060 Climbing Cleveland Center
02:02PM 40.8328 -78.7828 61° Northeast 482 555 31,800 2,700 Climbing Cleveland Center
02:03PM 40.8989 -78.6272 62° Northeast 482 555 34,200 1,560 Climbing Cleveland Center
02:04PM 40.9628 -78.4686 61° Northeast 482 555 35,000 180 Climbing Cleveland Center
02:07PM 41.1258 -78.0736 62° Northeast 507 583 35,000  Level New York Center
02:08PM 41.1944 -77.9047 62° Northeast 507 583 35,000  Level New York Center
02:09PM 41.2631 -77.7350 62° Northeast 507 583 35,000  Level New York Center
02:10PM 41.3383 -77.5494 62° Northeast 520 598 35,000  Level New York Center
02:11PM 41.4061 -77.3819 62° Northeast 520 598 35,000  Level New York Center
02:12PM 41.4736 -77.2142 63° Northeast 520 598 35,000  Level New York Center
02:13PM 41.5394 -77.0375 61° Northeast 520 598 35,000  Level New York Center
02:14PM 41.6108 -76.8664 64° Northeast 520 598 35,000  Level New York Center
02:15PM 41.6736 -76.6944 61° Northeast 520 598 35,000  Level New York Center
02:16PM 41.7350 -76.5442 62° Northeast 513 590 35,000 -720 Level New York Center
02:18PM 41.8667 -76.2067 63° Northeast 512 589 33,000 -720 Descending Boston Center
02:19PM 41.9328 -76.0319 62° Northeast 518 596 33,000  Level Boston Center
02:20PM 42.0031 -75.8544 64° Northeast 527 606 33,000  Level Boston Center
02:21PM 42.0664 -75.6817 64° Northeast 521 600 33,000  Level Boston Center
02:22PM 42.1297 -75.5083 72° East 521 600 33,000  Level Boston Center
02:23PM 42.1742 -75.3200 82° East 521 600 33,000  Level Boston Center
02:24PM 42.1956 -75.1222 81° East 527 606 33,000  Level Boston Center
02:25PM 42.2189 -74.9267 76° East 527 606 33,000  Level Boston Center
02:26PM 42.2542 -74.7347 77° East 527 606 33,000  Level Boston Center
02:27PM 42.2850 -74.5478 80° East 520 598 33,000  Level Boston Center
02:28PM 42.3094 -74.3492 80° East 521 600 33,000  Level Boston Center
02:29PM 42.3331 -74.1589 80° East 526 605 33,000  Level Boston Center
02:30PM 42.3544 -73.9881 81° East 521 600 33,000 -840 Level Boston Center
02:31PM 42.3778 -73.7919 82° East 521 600 31,400 -1,800 Descending Boston Center
02:32PM 42.3986 -73.5928 83° East 526 605 29,500 -1,980 Descending Boston Center
02:33PM 42.4172 -73.3961 81° East 526 605 27,500 -1,980 Descending Boston Center
02:34PM 42.4397 -73.1911 82° East 535 616 25,600 -2,040 Descending Boston Center
02:35PM 42.4594 -72.9944 83° East 530 610 23,500 -2,340 Descending Boston Center
02:36PM 42.4769 -72.8061 83° East 528 608 21,000 -2,880 Descending Boston Center
02:37PM 42.4961 -72.6061 82° East 502 578 17,800 -3,060 Descending Boston Center
02:38PM 42.5131 -72.4317 83° East 483 556 14,900 -2,700 Descending Boston Center
02:39PM 42.5275 -72.2597 84° East 465 535 12,400 -2,280 Descending Boston Center
02:40PM 42.5394 -72.1161 89° East 406 467 10,400 -1,800 Descending Boston Center
02:41PM 42.5411 -71.9892 98° East 355 409 8,900 -1,560 Descending Boston Center
02:42PM 42.5281 -71.8681 97° East 328 377 7,300 -1,380 Descending Boston Center
02:43PM 42.5172 -71.7528 96° East 313 360 6,200 -660 Descending Boston Center
02:44PM 42.5081 -71.6431 74° East 302 348 6,000 -660 Descending Boston Center
02:45PM 42.5303 -71.5386 63° Northeast 281 323 4,900 -1,500 Descending Boston Center
02:46PM 42.5650 -71.4450 67° East 276 318 3,000 -1,440 Descending Boston Center
02:47PM 42.5911 -71.3628 114° Southeast 269 310 2,100 -540 Descending Boston Center
02:48PM 42.5675 -71.2900 139° Southeast 199 229 2,000 -300 Descending Boston Center
02:49PM 42.5333 -71.2500 180° South 151 174 1,600 -540 Descending Boston TRACON
02:50PM 42.5000 -71.2500 213° Southwest 119 137 1,000 9,120 Descending Boston TRACON
02:52PM 42.4467 -71.2978 206° Southwest 120 138 29,000 9,300 Climbing Boston Center
02:53PM 42.4158 -71.3181 209° Southwest 120 138 29,000  Level Boston Center
02:54PM 42.3847 -71.3411 207° Southwest 120 138 29,000  Level Boston Center
02:55PM 42.3597 -71.3583 360° North 120 138 29,000  Level Boston Center
02:56PM 42.3597 -71.3583 360° North 120 138 29,000  Level Boston Center